logo
Search for airport 
image banner adimage banner adimage banner ad
image banner ad

FABG - Buffelshoek

Located in , South Africa

ICAO - FABG, IATA -

Data provided by Airmate  

General information

Coordinates: S24°42'9" E31°35'11"
Elevation is 1348 feet MSL.
 
View others Airports in Mpumalanga

Operational data

Special qualification required
Current time UTC:
Current local time:
Weather at : - ( 0 km )
METAR: KSWF 181045Z 08007KT 2SM -DZ BR BKN005 OVC013 07/07 A3003
View NOTAMs / SUP AIP / TFR affecting this airport [VIEW]
Communications frequencies: [VIEW]

Runways:

RWY identifierQFULength (ft)Width (ft)SurfaceLDA (ft)
12163°2740164SAND
30343°2740164SAND

Airport contact information

Address: South Africa

Satellite view of FABG